createdAt,value
2018-12-09T00:02:09.689Z,22.10
2018-12-09T00:04:39.609Z,20.03
2018-12-09T00:07:10.129Z,12.70
2018-12-09T00:09:41.166Z,14.03
2018-12-09T00:12:11.712Z,9.47
2018-12-09T00:14:41.494Z,9.33
2018-12-09T00:17:11.981Z,12.00
2018-12-09T00:19:42.706Z,10.90
2018-12-09T00:22:15.786Z,12.47
2018-12-09T00:24:45.502Z,10.33
2018-12-09T00:27:15.301Z,11.03
2018-12-09T00:29:45.488Z,13.40
2018-12-09T00:32:15.320Z,21.20
2018-12-09T00:34:45.336Z,19.40
2018-12-09T00:37:15.259Z,22.60
2018-12-09T00:39:45.111Z,24.93
2018-12-09T00:42:14.885Z,24.07
2018-12-09T00:44:44.696Z,29.53
2018-12-09T00:47:14.528Z,22.37
2018-12-09T00:49:44.455Z,24.70
2018-12-09T00:52:14.271Z,18.43
2018-12-09T00:54:44.033Z,13.13
2018-12-09T00:57:13.964Z,30.00
2018-12-09T00:59:43.820Z,59.10
2018-12-09T01:02:13.615Z,16.43
2018-12-09T01:04:43.601Z,12.33
2018-12-09T01:07:13.322Z,23.13
2018-12-09T01:09:43.124Z,15.00
2018-12-09T01:12:13.743Z,14.50
2018-12-09T01:14:43.669Z,21.00
2018-12-09T01:17:14.205Z,20.87
2018-12-09T01:19:43.872Z,18.87
2018-12-09T01:22:13.816Z,21.90
2018-12-09T01:24:43.617Z,17.90
2018-12-09T01:27:13.772Z,16.03
2018-12-09T01:29:44.208Z,23.47
2018-12-09T01:32:14.305Z,16.27
2018-12-09T01:34:44.256Z,19.53
2018-12-09T01:37:14.054Z,18.13
2018-12-09T01:39:43.829Z,22.80
2018-12-09T01:42:13.723Z,18.97
2018-12-09T01:44:43.465Z,20.10
2018-12-09T01:47:13.305Z,19.03
2018-12-09T01:49:43.185Z,15.17
2018-12-09T01:52:13.025Z,17.97
2018-12-09T01:54:43.264Z,18.47
2018-12-09T01:57:13.207Z,18.07
2018-12-09T01:59:42.919Z,25.10
2018-12-09T02:02:13.244Z,18.17
2018-12-09T02:04:43.852Z,20.90
2018-12-09T02:07:13.762Z,17.90
2018-12-09T02:09:43.587Z,18.83
2018-12-09T02:12:13.676Z,18.27
2018-12-09T02:14:43.943Z,25.97
2018-12-09T02:17:13.708Z,18.77
2018-12-09T02:19:43.528Z,17.23
2018-12-09T02:22:13.454Z,16.30
2018-12-09T02:24:43.336Z,14.77
2018-12-09T02:27:13.176Z,17.67
2018-12-09T02:29:43.153Z,15.27
2018-12-09T02:32:13.057Z,18.53
2018-12-09T02:34:55.021Z,12.30
2018-12-09T02:37:24.752Z,17.60
2018-12-09T02:39:55.062Z,14.93
2018-12-09T02:42:24.862Z,19.63
2018-12-09T02:44:54.691Z,20.27
2018-12-09T02:47:25.125Z,17.83
2018-12-09T02:49:56.193Z,12.67
2018-12-09T02:52:26.020Z,14.30
2018-12-09T02:54:56.637Z,12.80
2018-12-09T02:57:26.451Z,16.70
2018-12-09T02:59:56.222Z,15.97
2018-12-09T03:02:26.063Z,13.47
2018-12-09T03:04:56.009Z,15.20
2018-12-09T03:07:26.557Z,16.17
2018-12-09T03:09:56.449Z,13.40
2018-12-09T03:12:26.367Z,16.77
2018-12-09T03:14:56.232Z,14.30
2018-12-09T03:17:26.312Z,12.20
2018-12-09T03:19:56.264Z,13.87
2018-12-09T03:22:26.148Z,15.60
2018-12-09T03:24:55.761Z,12.87
2018-12-09T03:27:25.609Z,14.57
2018-12-09T03:29:55.522Z,16.20
2018-12-09T03:32:25.365Z,16.07
2018-12-09T03:34:55.334Z,17.67
2018-12-09T03:37:25.239Z,12.17
2018-12-09T03:39:55.371Z,12.10
2018-12-09T03:42:25.462Z,11.33
2018-12-09T03:44:55.269Z,15.90
2018-12-09T03:47:25.156Z,11.17
2018-12-09T03:49:54.970Z,15.23
2018-12-09T03:52:31.775Z,16.50
2018-12-09T03:55:01.615Z,12.03
2018-12-09T03:57:31.415Z,17.83
2018-12-09T04:00:01.662Z,14.40
2018-12-09T04:02:32.054Z,11.73
2018-12-09T04:05:02.743Z,12.07
2018-12-09T04:07:32.781Z,11.43
2018-12-09T04:10:02.749Z,13.93
2018-12-09T04:12:32.429Z,14.30
2018-12-09T04:15:03.832Z,13.63
2018-12-09T04:17:33.599Z,13.00
2018-12-09T04:20:04.567Z,13.20
2018-12-09T04:22:34.368Z,14.43
2018-12-09T04:25:04.564Z,11.50
2018-12-09T04:27:34.381Z,9.93
2018-12-09T04:30:04.900Z,13.10
2018-12-09T04:32:34.814Z,6.60
2018-12-09T04:35:04.777Z,7.97
2018-12-09T04:37:34.672Z,7.53
2018-12-09T04:40:04.792Z,5.73
2018-12-09T04:42:35.539Z,6.30
2018-12-09T04:45:07.080Z,6.70
2018-12-09T04:47:36.980Z,8.93
2018-12-09T04:50:09.168Z,6.87
2018-12-09T04:52:39.068Z,5.77
2018-12-09T04:55:08.731Z,6.30
2018-12-09T04:57:38.688Z,8.13
2018-12-09T05:00:25.427Z,8.33
2018-12-09T05:02:55.501Z,4.97
2018-12-09T05:05:25.368Z,8.47
2018-12-09T05:07:55.242Z,5.53
2018-12-09T05:10:25.025Z,7.50
2018-12-09T05:12:54.973Z,6.03
2018-12-09T05:15:24.740Z,7.57
2018-12-09T05:17:54.607Z,7.60
2018-12-09T05:20:24.475Z,6.27
2018-12-09T05:22:54.556Z,10.23
2018-12-09T05:25:24.953Z,6.03
2018-12-09T05:27:54.777Z,8.77
2018-12-09T05:30:25.010Z,10.07
2018-12-09T05:32:54.736Z,4.13
2018-12-09T05:35:24.501Z,7.07
2018-12-09T05:37:54.204Z,9.70
2018-12-09T05:40:24.069Z,9.53
2018-12-09T05:42:53.931Z,9.67
2018-12-09T05:45:23.717Z,10.07
2018-12-09T05:47:53.512Z,12.80
2018-12-09T05:50:23.506Z,9.67
2018-12-09T05:52:53.412Z,11.43
2018-12-09T05:55:23.322Z,5.73
2018-12-09T05:57:53.129Z,6.00
2018-12-09T06:00:22.899Z,10.33
2018-12-09T06:02:56.643Z,10.03
2018-12-09T06:05:26.465Z,7.77
2018-12-09T06:07:56.256Z,5.23
2018-12-09T06:10:26.300Z,7.40
2018-12-09T06:12:56.090Z,6.23
2018-12-09T06:15:26.802Z,6.10
2018-12-09T06:17:57.043Z,9.70
2018-12-09T06:20:26.716Z,7.83
2018-12-09T06:22:56.885Z,5.83
2018-12-09T06:25:26.680Z,10.70
2018-12-09T06:27:57.144Z,4.20
2018-12-09T06:30:27.075Z,9.47
2018-12-09T06:32:56.844Z,6.23
2018-12-09T06:35:26.674Z,9.10
2018-12-09T06:37:56.732Z,12.73
2018-12-09T06:40:26.672Z,9.20
2018-12-09T06:42:56.507Z,12.67
2018-12-09T06:45:26.304Z,11.03
2018-12-09T06:47:56.208Z,13.70
2018-12-09T06:50:27.055Z,13.23
2018-12-09T06:52:57.628Z,19.10
2018-12-09T06:55:27.491Z,17.93
2018-12-09T06:57:57.442Z,19.03
2018-12-09T07:00:27.307Z,20.70
2018-12-09T07:02:57.073Z,15.33
2018-12-09T07:05:26.777Z,14.13
2018-12-09T07:07:56.495Z,18.23
2018-12-09T07:10:26.928Z,18.33
2018-12-09T07:12:57.293Z,17.97
2018-12-09T07:15:27.003Z,21.13
2018-12-09T07:17:56.897Z,18.17
2018-12-09T07:20:26.657Z,20.73
2018-12-09T07:22:56.602Z,16.60
2018-12-09T07:25:26.295Z,14.33
2018-12-09T07:27:56.269Z,17.07
2018-12-09T07:30:26.184Z,17.87
2018-12-09T07:32:56.001Z,16.83
2018-12-09T07:35:26.302Z,11.37
2018-12-09T07:37:56.280Z,19.80
2018-12-09T07:40:26.030Z,18.33
2018-12-09T07:42:56.064Z,18.73
2018-12-09T07:45:25.962Z,13.90
2018-12-09T07:47:56.914Z,17.73
2018-12-09T07:50:26.791Z,12.57
2018-12-09T07:52:56.597Z,15.67
2018-12-09T07:55:27.015Z,14.10
2018-12-09T07:57:56.948Z,12.23
2018-12-09T08:00:26.673Z,23.50
2018-12-09T08:02:56.351Z,15.43
2018-12-09T08:05:26.417Z,17.37
2018-12-09T08:07:56.225Z,13.97
2018-12-09T08:10:26.060Z,12.93
2018-12-09T08:12:55.985Z,14.23
2018-12-09T08:15:25.725Z,19.70
2018-12-09T08:17:55.498Z,19.10
2018-12-09T08:20:25.205Z,13.40
2018-12-09T08:22:55.604Z,12.93
2018-12-09T08:25:26.764Z,12.30
2018-12-09T08:27:58.932Z,16.50
2018-12-09T08:30:29.675Z,16.17
2018-12-09T08:33:00.265Z,17.77
2018-12-09T08:35:33.834Z,16.93
2018-12-09T08:38:04.983Z,15.37
2018-12-09T08:40:35.477Z,18.87
2018-12-09T08:43:06.385Z,15.40
2018-12-09T08:48:25.483Z,15.40
2018-12-09T08:50:55.280Z,22.53
2018-12-09T08:53:25.088Z,19.03
2018-12-09T08:55:54.935Z,14.73
2018-12-09T08:58:24.941Z,18.20
2018-12-09T09:00:54.952Z,14.37
2018-12-09T09:03:24.777Z,15.40
2018-12-09T09:05:54.484Z,15.20
2018-12-09T09:08:24.386Z,14.20
2018-12-09T09:10:54.793Z,12.87
2018-12-09T09:13:24.600Z,13.13
2018-12-09T09:15:54.453Z,14.80
2018-12-09T09:18:24.471Z,10.93
2018-12-09T09:20:54.261Z,14.17
2018-12-09T09:23:23.967Z,16.37
2018-12-09T09:25:54.330Z,16.10
2018-12-09T09:28:24.276Z,12.50
2018-12-09T09:30:54.172Z,13.53
2018-12-09T09:33:24.036Z,17.77
2018-12-09T09:35:54.612Z,16.27
2018-12-09T09:38:24.488Z,18.93
2018-12-09T09:40:54.348Z,14.83
2018-12-09T09:43:24.266Z,16.60
2018-12-09T09:45:53.964Z,14.37
2018-12-09T09:48:23.875Z,15.70
2018-12-09T09:50:53.980Z,15.70
2018-12-09T09:53:23.760Z,11.37
2018-12-09T09:55:53.593Z,11.47
2018-12-09T09:58:23.967Z,11.83
2018-12-09T10:00:53.840Z,16.70
2018-12-09T10:03:26.028Z,14.63
2018-12-09T10:05:56.817Z,11.00
2018-12-09T10:08:26.614Z,9.00
2018-12-09T10:10:56.513Z,11.93
2018-12-09T10:13:26.521Z,11.13
2018-12-09T10:15:57.076Z,13.50
2018-12-09T10:18:26.955Z,13.23
2018-12-09T10:20:56.889Z,14.73
2018-12-09T10:23:27.192Z,11.37
2018-12-09T10:25:56.941Z,11.53
2018-12-09T10:28:26.786Z,13.23
2018-12-09T10:30:56.600Z,13.30
2018-12-09T10:33:27.281Z,11.07
2018-12-09T10:35:57.380Z,16.20
2018-12-09T10:38:27.114Z,12.43
2018-12-09T10:40:56.904Z,11.60
2018-12-09T10:43:26.736Z,10.93
2018-12-09T10:45:56.642Z,14.17
2018-12-09T10:48:26.538Z,9.87
2018-12-09T10:50:56.232Z,10.93
2018-12-09T10:53:26.394Z,11.83
2018-12-09T10:55:56.330Z,15.93
2018-12-09T10:58:26.406Z,18.57
2018-12-09T11:01:01.429Z,13.93
2018-12-09T11:03:31.326Z,32.20
2018-12-09T11:06:01.177Z,4.50
2018-12-09T11:08:31.018Z,2.00
2018-12-09T11:11:00.798Z,1.73
2018-12-09T11:13:30.619Z,2.03
2018-12-09T11:16:00.595Z,1.83
2018-12-09T11:18:30.502Z,2.40
2018-12-09T11:21:00.259Z,5.93
2018-12-09T11:23:30.151Z,4.53
2018-12-09T11:26:00.304Z,7.13
2018-12-09T11:28:30.189Z,7.50
2018-12-09T11:31:00.123Z,7.23
2018-12-09T11:33:30.036Z,3.00
2018-12-09T11:35:59.986Z,7.00
2018-12-09T11:38:30.007Z,7.40
2018-12-09T11:40:59.877Z,9.87
2018-12-09T11:43:30.090Z,12.17
2018-12-09T11:46:00.504Z,20.00
2018-12-09T11:48:30.771Z,16.27
2018-12-09T11:51:00.543Z,19.87
2018-12-09T11:53:30.868Z,18.87
2018-12-09T11:56:00.720Z,12.43
2018-12-09T11:58:30.748Z,11.00
2018-12-09T12:01:00.585Z,9.67
2018-12-09T12:03:30.749Z,6.87
2018-12-09T12:06:00.619Z,10.10
2018-12-09T12:08:30.761Z,9.33
2018-12-09T12:11:00.996Z,7.30
2018-12-09T12:13:32.903Z,7.87
2018-12-09T12:16:04.177Z,11.40
2018-12-09T12:18:34.237Z,8.37
2018-12-09T12:21:04.981Z,8.07
2018-12-09T12:23:34.941Z,7.90
2018-12-09T12:26:05.220Z,9.13
2018-12-09T12:28:35.061Z,9.23
2018-12-09T12:31:06.791Z,6.67
2018-12-09T12:33:36.743Z,6.07
2018-12-09T12:36:06.481Z,8.13
2018-12-09T12:38:37.122Z,13.40
2018-12-09T12:41:07.850Z,12.53
2018-12-09T12:43:37.694Z,6.33
2018-12-09T12:46:07.781Z,7.87
2018-12-09T12:48:37.969Z,3.40
2018-12-09T12:51:08.016Z,5.10
2018-12-09T12:53:39.040Z,5.00
2018-12-09T12:56:09.581Z,5.93
2018-12-09T12:58:39.528Z,5.27
2018-12-09T13:01:10.191Z,7.13
2018-12-09T13:03:46.984Z,6.63
2018-12-09T13:06:17.516Z,7.13
2018-12-09T13:08:47.556Z,8.20
2018-12-09T13:11:17.439Z,7.53
2018-12-09T13:13:47.218Z,8.90
2018-12-09T13:16:17.127Z,15.23
2018-12-09T13:18:47.051Z,21.27
2018-12-09T13:21:16.980Z,27.73
2018-12-09T13:23:47.301Z,25.87
2018-12-09T13:26:20.277Z,36.70
2018-12-09T13:28:50.179Z,33.03
2018-12-09T13:31:20.114Z,27.00
2018-12-09T13:33:49.975Z,32.13
2018-12-09T13:36:20.780Z,29.93
2018-12-09T13:38:50.579Z,26.90
2018-12-09T13:41:22.187Z,22.70
2018-12-09T13:43:53.529Z,16.90
2018-12-09T13:46:23.718Z,18.57
2018-12-09T13:48:53.699Z,17.33
2018-12-09T13:51:23.609Z,19.37
2018-12-09T13:53:53.492Z,17.60
2018-12-09T13:56:23.375Z,14.37
2018-12-09T13:58:54.303Z,8.90
2018-12-09T14:01:24.352Z,8.30
2018-12-09T14:03:54.241Z,16.97
2018-12-09T14:06:24.271Z,17.97
2018-12-09T14:08:54.009Z,8.87
2018-12-09T14:11:24.729Z,16.47
2018-12-09T14:13:54.607Z,20.97
2018-12-09T14:16:25.190Z,31.00
2018-12-09T14:18:55.218Z,26.67
2018-12-09T14:21:25.494Z,25.23
2018-12-09T14:23:56.938Z,18.73
2018-12-09T14:26:27.046Z,14.00
2018-12-09T14:28:58.811Z,12.23
2018-12-09T14:31:30.866Z,12.30
2018-12-09T14:34:01.377Z,12.30
2018-12-09T14:36:31.271Z,10.03
2018-12-09T14:39:01.836Z,9.80
2018-12-09T14:41:31.519Z,11.33
2018-12-09T14:44:02.121Z,9.20
2018-12-09T14:46:31.930Z,7.30
2018-12-09T14:49:01.584Z,7.70
2018-12-09T14:51:31.601Z,12.70
2018-12-09T14:54:01.689Z,10.87
2018-12-09T14:56:31.880Z,11.53
2018-12-09T14:59:01.745Z,12.83
2018-12-09T15:01:31.743Z,10.20
2018-12-09T15:04:01.527Z,10.80
2018-12-09T15:06:32.229Z,8.50
2018-12-09T15:09:02.457Z,7.93
2018-12-09T15:11:32.637Z,10.00
2018-12-09T15:14:02.556Z,19.53
2018-12-09T15:16:33.071Z,12.53
2018-12-09T15:19:02.861Z,11.30
2018-12-09T15:21:32.857Z,10.90
2018-12-09T15:24:02.687Z,10.73
2018-12-09T15:26:32.828Z,9.70
2018-12-09T15:29:02.846Z,8.87
2018-12-09T15:31:32.851Z,8.77
2018-12-09T15:34:02.753Z,10.43
2018-12-09T15:36:32.721Z,9.87
2018-12-09T15:39:05.111Z,12.87
2018-12-09T15:41:35.013Z,12.33
2018-12-09T15:44:06.417Z,9.53
2018-12-09T15:46:36.454Z,14.67
2018-12-09T15:49:06.623Z,13.60
2018-12-09T15:51:36.620Z,11.30
2018-12-09T15:54:06.840Z,9.20
2018-12-09T15:56:36.840Z,9.37
2018-12-09T15:59:06.612Z,14.67
2018-12-09T16:01:36.937Z,9.07
2018-12-09T16:04:06.742Z,7.53
2018-12-09T16:06:37.333Z,11.80
2018-12-09T16:09:08.973Z,6.63
2018-12-09T16:11:38.892Z,7.67
2018-12-09T16:14:08.909Z,10.00
2018-12-09T16:16:38.871Z,7.77
2018-12-09T16:19:08.741Z,13.10
2018-12-09T16:21:38.604Z,9.30
2018-12-09T16:24:08.481Z,11.00
2018-12-09T16:26:38.469Z,9.60
2018-12-09T16:29:08.380Z,10.30
2018-12-09T16:31:38.194Z,14.03
2018-12-09T16:34:07.901Z,8.40
2018-12-09T16:36:37.796Z,11.97
2018-12-09T16:39:09.065Z,11.67
2018-12-09T16:41:38.928Z,7.47
2018-12-09T16:44:09.136Z,10.33
2018-12-09T16:46:39.789Z,13.57
2018-12-09T16:49:10.041Z,12.40
2018-12-09T16:51:40.554Z,10.17
2018-12-09T16:54:13.751Z,10.30
2018-12-09T16:56:44.347Z,10.57
2018-12-09T16:59:14.210Z,22.90
2018-12-09T17:01:44.205Z,15.77
2018-12-09T17:04:14.060Z,16.30
2018-12-09T17:06:46.116Z,12.20
2018-12-09T17:09:16.287Z,22.63
2018-12-09T17:11:49.403Z,19.83
2018-12-09T17:14:20.446Z,24.03
2018-12-09T17:16:54.053Z,25.60
2018-12-09T17:19:24.445Z,20.73
2018-12-09T17:21:56.654Z,30.90
2018-12-09T17:24:28.455Z,23.37
2018-12-09T17:26:58.280Z,29.93
2018-12-09T17:29:28.304Z,22.97
2018-12-09T17:31:59.078Z,16.50
2018-12-09T17:34:29.300Z,18.40
2018-12-09T17:36:59.898Z,20.07
2018-12-09T17:39:29.787Z,14.90
2018-12-09T17:42:00.835Z,17.50
2018-12-09T17:44:30.847Z,19.17
2018-12-09T17:47:01.489Z,17.10
2018-12-09T17:49:32.097Z,14.60
2018-12-09T17:52:02.214Z,11.47
2018-12-09T17:54:35.816Z,15.47
2018-12-09T17:57:05.897Z,13.13
2018-12-09T17:59:35.850Z,17.50
2018-12-09T18:02:07.462Z,12.30
2018-12-09T18:04:37.277Z,11.57
2018-12-09T18:07:07.419Z,9.97
2018-12-09T18:09:37.224Z,16.83
2018-12-09T18:12:07.889Z,10.23
2018-12-09T18:14:38.609Z,9.40
2018-12-09T18:17:08.411Z,10.23
2018-12-09T18:19:38.380Z,12.77
2018-12-09T18:22:08.350Z,10.90
2018-12-09T18:24:38.356Z,9.50
2018-12-09T18:27:08.316Z,15.80
2018-12-09T18:29:38.393Z,17.00
2018-12-09T18:32:08.242Z,7.50
2018-12-09T18:34:38.417Z,15.53
2018-12-09T18:37:08.427Z,15.27
2018-12-09T18:39:38.989Z,12.10
2018-12-09T18:42:09.032Z,11.93
2018-12-09T18:44:39.145Z,8.63
2018-12-09T18:47:09.065Z,7.20
2018-12-09T18:49:39.301Z,5.97
2018-12-09T18:52:09.315Z,13.97
2018-12-09T18:54:39.133Z,12.53
2018-12-09T18:57:09.219Z,10.13
2018-12-09T18:59:39.457Z,14.07
2018-12-09T19:02:09.540Z,12.33
2018-12-09T19:04:39.712Z,16.80
2018-12-09T19:07:10.860Z,19.73
2018-12-09T19:09:41.451Z,14.00
2018-12-09T19:12:11.904Z,15.97
2018-12-09T19:14:42.885Z,14.17
2018-12-09T19:17:12.792Z,14.97
2018-12-09T19:19:42.885Z,15.63
2018-12-09T19:22:12.771Z,11.13
2018-12-09T19:24:43.378Z,17.10
2018-12-09T19:27:13.347Z,16.00
2018-12-09T19:29:43.307Z,15.97
2018-12-09T19:32:20.502Z,19.60
2018-12-09T19:34:50.630Z,16.63
2018-12-09T19:37:20.695Z,18.40
2018-12-09T19:39:50.683Z,21.67
2018-12-09T19:42:20.789Z,34.90
2018-12-09T19:44:50.994Z,51.17
2018-12-09T19:47:21.160Z,44.97
2018-12-09T19:49:51.097Z,55.50
2018-12-09T19:52:21.112Z,47.00
2018-12-09T19:54:50.985Z,57.63
2018-12-09T19:57:21.100Z,58.10
2018-12-09T19:59:50.955Z,40.87
2018-12-09T20:02:21.748Z,39.53
2018-12-09T20:04:51.600Z,32.30
2018-12-09T20:07:21.497Z,47.83
2018-12-09T20:09:51.318Z,59.27
2018-12-09T20:12:21.437Z,60.33
2018-12-09T20:14:51.267Z,41.80
2018-12-09T20:17:21.393Z,43.93
2018-12-09T20:19:51.491Z,50.77
2018-12-09T20:22:22.103Z,70.63
2018-12-09T20:24:52.204Z,58.23
2018-12-09T20:27:23.744Z,60.63
2018-12-09T20:29:54.665Z,85.57
2018-12-09T20:32:24.398Z,62.53
2018-12-09T20:34:54.366Z,43.83
2018-12-09T20:37:24.425Z,47.53
2018-12-09T20:39:54.334Z,41.57
2018-12-09T20:42:24.415Z,38.77
2018-12-09T20:44:54.455Z,38.17
2018-12-09T20:47:25.419Z,34.80
2018-12-09T20:49:55.414Z,18.80
2018-12-09T20:52:25.330Z,16.50
2018-12-09T20:54:55.204Z,20.53
2018-12-09T20:57:25.546Z,19.17
2018-12-09T20:59:55.693Z,17.43
2018-12-09T21:02:25.766Z,17.40
2018-12-09T21:04:55.822Z,14.07
2018-12-09T21:07:26.036Z,16.33
2018-12-09T21:09:55.798Z,12.07
2018-12-09T21:12:26.573Z,22.57
2018-12-09T21:14:56.564Z,27.73
2018-12-09T21:17:27.120Z,21.07
2018-12-09T21:19:57.285Z,17.63
2018-12-09T21:22:27.215Z,27.00
2018-12-09T21:24:57.025Z,23.53
2018-12-09T21:27:27.060Z,31.00
2018-12-09T21:29:57.722Z,28.33
2018-12-09T21:32:27.616Z,19.80
2018-12-09T21:34:58.187Z,16.70
2018-12-09T21:37:29.497Z,21.93
2018-12-09T21:39:59.554Z,19.47
2018-12-09T21:42:29.459Z,21.40
2018-12-09T21:44:59.367Z,20.00
2018-12-09T21:47:29.307Z,19.60
2018-12-09T21:49:59.534Z,18.57
2018-12-09T21:52:29.937Z,13.77
2018-12-09T21:55:00.488Z,24.60
2018-12-09T21:57:30.442Z,16.97
2018-12-09T22:00:00.417Z,15.70
2018-12-09T22:02:30.176Z,17.23
2018-12-09T22:05:00.227Z,18.97
2018-12-09T22:07:30.147Z,17.63
2018-12-09T22:10:00.077Z,14.40
2018-12-09T22:12:30.577Z,19.17
2018-12-09T22:15:01.734Z,25.67
2018-12-09T22:17:31.783Z,18.77
2018-12-09T22:20:01.611Z,13.33
2018-12-09T22:22:31.490Z,14.40
2018-12-09T22:25:01.734Z,19.73
2018-12-09T22:27:31.624Z,10.17
2018-12-09T22:30:01.975Z,15.93
2018-12-09T22:32:31.822Z,12.60
2018-12-09T22:35:02.994Z,18.10
2018-12-09T22:37:32.808Z,14.43
2018-12-09T22:40:02.784Z,15.50
2018-12-09T22:42:32.605Z,21.87
2018-12-09T22:45:02.736Z,37.27
2018-12-09T22:47:32.685Z,25.27
2018-12-09T22:50:02.819Z,18.53
2018-12-09T22:52:32.684Z,20.07
2018-12-09T22:55:04.339Z,20.40
2018-12-09T22:57:34.282Z,27.43
2018-12-09T23:00:05.952Z,29.13
2018-12-09T23:02:41.374Z,29.13
2018-12-09T23:05:11.255Z,34.80
2018-12-09T23:07:46.730Z,46.20
2018-12-09T23:10:16.807Z,48.17
2018-12-09T23:12:46.510Z,37.70
2018-12-09T23:15:16.502Z,38.87
2018-12-09T23:17:46.573Z,48.20
2018-12-09T23:20:17.023Z,49.17
2018-12-09T23:22:46.796Z,44.97
2018-12-09T23:25:16.558Z,31.27
2018-12-09T23:27:46.682Z,24.27
2018-12-09T23:30:16.489Z,21.67
2018-12-09T23:32:46.555Z,22.70
2018-12-09T23:35:16.357Z,46.03
2018-12-09T23:37:46.383Z,56.10
2018-12-09T23:40:16.242Z,48.07
2018-12-09T23:42:46.185Z,38.27
2018-12-09T23:45:16.019Z,37.00
2018-12-09T23:47:45.951Z,27.80
2018-12-09T23:50:15.718Z,18.47
2018-12-09T23:52:45.397Z,10.70
2018-12-09T23:55:15.223Z,13.50
2018-12-09T23:57:45.335Z,11.87
